Time;durP1;ratioP1;P1;durP2;ratioP2;P2;SDS_P1;SDS_P2;PMS_P1;PMS_P2;Temp;Humidity;BMP_temperature;BMP_pressure;BME280_temperature;BME280_humidity;BME280_pressure;Samples;Min_cycle;Max_cycle;Signal;HPM_P1;HPM_P2
2022/01/05 00:01:51;;;;;;;;;;;2.50;99.90;;;;;;5043143;28;19932;-79
2022/01/05 00:04:22;;;;;;;;;;;1.30;99.90;;;;;;5023356;28;19991;-79
2022/01/05 00:06:53;;;;;;;;;;;2.30;99.90;;;;;;5044361;28;19929;-79
2022/01/05 00:09:20;;;;;;;;;;;1.00;99.90;;;;;;5021778;28;19926;-79
2022/01/05 00:11:48;;;;;;;;;;;2.30;99.90;;;;;;5017619;28;19932;-79
2022/01/05 00:14:16;;;;;;;;;;;2.30;99.90;;;;;;5048153;28;19929;-79
2022/01/05 00:16:44;;;;;;;;;;;2.20;99.90;;;;;;5031304;28;19925;-78
2022/01/05 00:19:12;;;;;;;;;;;2.20;99.90;;;;;;5035734;28;19929;-79
2022/01/05 00:21:41;;;;;;;;;;;2.20;99.90;;;;;;5036961;28;20374;-79
2022/01/05 00:24:10;;;;;;;;;;;2.20;99.90;;;;;;5013994;28;19925;-79
2022/01/05 00:26:39;;;;;;;;;;;1.70;99.90;;;;;;5029551;28;19933;-78
2022/01/05 00:29:08;;;;;;;;;;;0.60;99.90;;;;;;5017749;28;19932;-79
2022/01/05 00:31:36;;;;;;;;;;;2.10;99.90;;;;;;5042099;28;19929;-79
2022/01/05 00:34:07;;;;;;;;;;;2.20;99.90;;;;;;5020754;28;19941;-79
2022/01/05 00:36:38;;;;;;;;;;;2.10;99.90;;;;;;5039652;28;20583;-79
2022/01/05 00:39:05;;;;;;;;;;;2.20;99.90;;;;;;5045175;28;19929;-79
2022/01/05 00:41:34;;;;;;;;;;;2.50;99.90;;;;;;4994353;28;19933;-78
2022/01/05 00:44:04;;;;;;;;;;;2.10;99.90;;;;;;5000024;28;19933;-79
2022/01/05 00:46:33;;;;;;;;;;;2.20;99.90;;;;;;5023994;28;19936;-79
2022/01/05 00:49:01;;;;;;;;;;;2.10;99.90;;;;;;5025116;28;19929;-78
2022/01/05 00:51:31;;;;;;;;;;;2.10;99.90;;;;;;5039103;28;20220;-78
2022/01/05 00:53:59;;;;;;;;;;;1.10;99.90;;;;;;5023063;28;19930;-79
2022/01/05 00:56:27;;;;;;;;;;;2.10;99.90;;;;;;5017327;28;19933;-79
2022/01/05 00:58:58;;;;;;;;;;;2.20;99.90;;;;;;5024509;28;19933;-79
2022/01/05 01:01:29;;;;;;;;;;;2.10;99.90;;;;;;5039372;28;19937;-79
2022/01/05 01:03:58;;;;;;;;;;;2.10;99.90;;;;;;5016165;28;19940;-79
2022/01/05 01:06:26;;;;;;;;;;;2.10;99.90;;;;;;5023482;28;19936;-79
2022/01/05 01:08:56;;;;;;;;;;;2.10;99.90;;;;;;5019248;28;19932;-79
2022/01/05 01:11:24;;;;;;;;;;;2.00;99.90;;;;;;5025573;28;19924;-79
2022/01/05 01:13:52;;;;;;;;;;;2.20;99.90;;;;;;5039899;28;19933;-79
2022/01/05 01:16:20;;;;;;;;;;;2.80;99.90;;;;;;5041319;28;19928;-79
2022/01/05 01:18:49;;;;;;;;;;;2.10;99.90;;;;;;5025050;28;19929;-79
2022/01/05 01:21:17;;;;;;;;;;;2.10;99.90;;;;;;5025430;28;19929;-78
2022/01/05 01:23:55;;;;;;;;;;;2.10;99.90;;;;;;5055145;28;19925;-79
2022/01/05 01:26:24;;;;;;;;;;;2.10;99.90;;;;;;5028549;28;19932;-79
2022/01/05 01:28:54;;;;;;;;;;;2.10;99.90;;;;;;5043175;28;19928;-78
2022/01/05 01:31:26;;;;;;;;;;;2.00;99.90;;;;;;5072248;28;19932;-79
2022/01/05 01:33:54;;;;;;;;;;;2.00;99.90;;;;;;5048528;28;19925;-79
2022/01/05 01:36:22;;;;;;;;;;;2.00;99.90;;;;;;5049481;28;19928;-78
2022/01/05 01:38:50;;;;;;;;;;;2.00;99.90;;;;;;5066600;28;19931;-79
2022/01/05 01:41:18;;;;;;;;;;;2.00;99.90;;;;;;5048994;28;19929;-79
2022/01/05 01:43:46;;;;;;;;;;;0.70;99.90;;;;;;5050690;28;19932;-80
2022/01/05 01:46:14;;;;;;;;;;;2.20;99.90;;;;;;5067004;28;19935;-78
2022/01/05 01:48:42;;;;;;;;;;;2.10;99.90;;;;;;5067622;28;19928;-78
2022/01/05 01:51:10;;;;;;;;;;;2.00;99.90;;;;;;5068194;28;19932;-79
2022/01/05 01:53:39;;;;;;;;;;;2.20;99.90;;;;;;5066199;28;19929;-78
2022/01/05 01:56:08;;;;;;;;;;;2.30;99.90;;;;;;5047386;28;20552;-79
2022/01/05 01:58:37;;;;;;;;;;;2.10;99.90;;;;;;5082197;28;19928;-79
2022/01/05 02:01:05;;;;;;;;;;;2.20;99.90;;;;;;5081248;28;19931;-79
2022/01/05 02:03:33;;;;;;;;;;;2.20;99.90;;;;;;5043762;28;19925;-79
2022/01/05 02:06:01;;;;;;;;;;;2.20;99.90;;;;;;5064220;28;19936;-78
2022/01/05 02:08:34;;;;;;;;;;;2.10;99.90;;;;;;5081449;28;19925;-79
2022/01/05 02:11:05;;;;;;;;;;;1.30;99.90;;;;;;5048655;28;19929;-79
2022/01/05 02:13:33;;;;;;;;;;;1.30;99.90;;;;;;5047126;28;19928;-78
2022/01/05 02:16:01;;;;;;;;;;;2.10;99.90;;;;;;5047931;28;19925;-79
2022/01/05 02:21:02;;;;;;;;;;;2.30;99.90;;;;;;5062695;28;19932;-79
2022/01/05 02:23:32;;;;;;;;;;;2.10;99.90;;;;;;5048312;28;19929;-80
2022/01/05 02:26:01;;;;;;;;;;;2.10;99.90;;;;;;5065549;28;19931;-79
2022/01/05 02:28:30;;;;;;;;;;;2.30;99.90;;;;;;5030641;28;19940;-79
2022/01/05 02:30:58;;;;;;;;;;;2.10;99.90;;;;;;5027469;28;19929;-79
2022/01/05 02:33:25;;;;;;;;;;;2.10;99.90;;;;;;5054696;28;19925;-79
2022/01/05 02:35:53;;;;;;;;;;;1.90;99.90;;;;;;5047748;28;20242;-79
2022/01/05 02:38:23;;;;;;;;;;;2.00;99.90;;;;;;5064572;28;19929;-79
2022/01/05 02:40:51;;;;;;;;;;;2.20;99.90;;;;;;5048387;28;19924;-79
2022/01/05 02:43:20;;;;;;;;;;;1.90;99.90;;;;;;5040982;28;19959;-79
2022/01/05 02:45:47;;;;;;;;;;;2.10;99.90;;;;;;5012554;28;19932;-78
2022/01/05 02:48:15;;;;;;;;;;;2.40;99.90;;;;;;5075817;28;19925;-80
2022/01/05 02:50:47;;;;;;;;;;;2.20;99.90;;;;;;5071019;28;19925;-78
2022/01/05 02:53:15;;;;;;;;;;;2.10;99.90;;;;;;5049296;28;19929;-79
2022/01/05 02:55:44;;;;;;;;;;;2.10;99.90;;;;;;5067912;28;19935;-79
2022/01/05 02:58:12;;;;;;;;;;;2.10;99.90;;;;;;5054309;28;19924;-78
2022/01/05 03:00:41;;;;;;;;;;;2.40;99.90;;;;;;5052321;28;19925;-79
2022/01/05 03:03:08;;;;;;;;;;;2.20;99.90;;;;;;5082542;28;19925;-79
2022/01/05 03:05:36;;;;;;;;;;;2.20;99.90;;;;;;5068062;28;19932;-79
2022/01/05 03:08:29;;;;;;;;;;;2.20;99.90;;;;;;5067592;28;19925;-79
2022/01/05 03:10:59;;;;;;;;;;;2.20;99.90;;;;;;5057026;28;19929;-79
2022/01/05 03:13:27;;;;;;;;;;;2.20;99.90;;;;;;5025049;28;19936;-79
2022/01/05 03:15:56;;;;;;;;;;;2.30;99.90;;;;;;5057207;28;19936;-79
2022/01/05 03:18:49;;;;;;;;;;;2.20;99.90;;;;;;5026434;28;19926;-79
2022/01/05 03:24:55;;;;;;;;;;;2.20;99.90;;;;;;5037229;28;19918;-79
2022/01/05 03:27:22;;;;;;;;;;;2.20;99.90;;;;;;5026002;28;19940;-79
2022/01/05 03:29:50;;;;;;;;;;;2.20;99.90;;;;;;5057965;28;19947;-79
2022/01/05 03:32:18;;;;;;;;;;;2.10;99.90;;;;;;5043325;28;20701;-79
2022/01/05 03:34:50;;;;;;;;;;;2.10;99.90;;;;;;5017882;28;19928;-79
2022/01/05 03:37:17;;;;;;;;;;;2.20;99.90;;;;;;5023104;28;19921;-79
2022/01/05 03:43:27;;;;;;;;;;;2.00;99.90;;;;;;5027523;28;19917;-79
2022/01/05 03:45:54;;;;;;;;;;;2.00;99.90;;;;;;5027779;28;19925;-79
2022/01/05 03:48:47;;;;;;;;;;;1.90;99.90;;;;;;5046076;28;19929;-79
2022/01/05 03:51:15;;;;;;;;;;;2.00;99.90;;;;;;5026397;28;20025;-79
2022/01/05 03:53:43;;;;;;;;;;;2.00;99.90;;;;;;5015396;28;19926;-79
2022/01/05 03:56:11;;;;;;;;;;;2.00;99.90;;;;;;5031460;28;19932;-79
2022/01/05 03:58:40;;;;;;;;;;;2.00;99.90;;;;;;5027996;28;19926;-79
2022/01/05 04:01:33;;;;;;;;;;;2.00;99.90;;;;;;5027476;28;19929;-79
2022/01/05 04:04:01;;;;;;;;;;;2.00;99.90;;;;;;5012973;28;19929;-79
2022/01/05 04:06:29;;;;;;;;;;;2.00;99.90;;;;;;5029058;28;19926;-79
2022/01/05 04:09:40;;;;;;;;;;;2.00;99.90;;;;;;5025410;28;19925;-79
2022/01/05 04:15:57;;;;;;;;;;;2.00;99.90;;;;;;5032387;28;19935;-79
2022/01/05 04:18:25;;;;;;;;;;;2.00;99.90;;;;;;5043007;28;19940;-79
2022/01/05 04:20:54;;;;;;;;;;;2.00;99.90;;;;;;5044840;28;19932;-79
2022/01/05 04:23:21;;;;;;;;;;;2.00;99.90;;;;;;5052136;28;19929;-79
2022/01/05 04:25:49;;;;;;;;;;;2.00;99.90;;;;;;5043592;28;19936;-79
2022/01/05 04:28:17;;;;;;;;;;;2.00;99.90;;;;;;5061484;28;19929;-79
2022/01/05 04:30:44;;;;;;;;;;;2.00;99.90;;;;;;5028139;28;19925;-78
2022/01/05 04:33:37;;;;;;;;;;;1.90;99.90;;;;;;5023521;28;19929;-79
2022/01/05 04:36:29;;;;;;;;;;;2.00;99.90;;;;;;5038531;28;19944;-79
2022/01/05 04:38:57;;;;;;;;;;;2.00;99.90;;;;;;5024637;28;19930;-78
2022/01/05 04:41:24;;;;;;;;;;;2.00;99.90;;;;;;5039645;28;19926;-79
2022/01/05 04:44:17;;;;;;;;;;;2.00;99.90;;;;;;5061360;28;19925;-78
2022/01/05 04:46:46;;;;;;;;;;;2.00;99.90;;;;;;5044594;28;19925;-79
2022/01/05 04:49:14;;;;;;;;;;;2.00;99.90;;;;;;5044710;28;19921;-79
2022/01/05 04:59:15;;;;;;;;;;;2.00;99.90;;;;;;5045486;28;19929;-78
2022/01/05 05:01:44;;;;;;;;;;;2.70;99.90;;;;;;5049028;28;19929;-79
2022/01/05 05:04:38;;;;;;;;;;;2.10;99.90;;;;;;5065884;28;19925;-79
2022/01/05 05:07:06;;;;;;;;;;;2.70;99.90;;;;;;5081745;28;19941;-79
2022/01/05 05:09:34;;;;;;;;;;;2.20;99.90;;;;;;5048878;28;19932;-79
2022/01/05 05:12:06;;;;;;;;;;;2.10;99.90;;;;;;5047038;28;20420;-79
2022/01/05 05:14:35;;;;;;;;;;;2.10;99.90;;;;;;5026269;28;20306;-79
2022/01/05 05:17:04;;;;;;;;;;;2.10;99.90;;;;;;5023617;28;19946;-79
2022/01/05 05:19:32;;;;;;;;;;;2.10;99.90;;;;;;5005802;28;19930;-79
2022/01/05 05:22:01;;;;;;;;;;;2.30;99.90;;;;;;5022722;28;19930;-79
2022/01/05 05:31:33;;;;;;;;;;;2.20;99.90;;;;;;5057381;28;20357;-79
2022/01/05 05:34:00;;;;;;;;;;;2.20;99.90;;;;;;5039927;28;19936;-78
2022/01/05 05:36:28;;;;;;;;;;;2.20;99.90;;;;;;5007342;28;19926;-79
2022/01/05 05:38:56;;;;;;;;;;;2.20;99.90;;;;;;5006026;28;19926;-79
2022/01/05 05:41:24;;;;;;;;;;;1.40;99.90;;;;;;5034642;28;19925;-78
2022/01/05 05:47:09;;;;;;;;;;;2.20;99.90;;;;;;5026523;28;19929;-79
2022/01/05 05:49:36;;;;;;;;;;;2.20;99.90;;;;;;5023153;28;19930;-78
2022/01/05 05:52:05;;;;;;;;;;;2.20;99.90;;;;;;5022839;28;19929;-78
2022/01/05 05:54:58;;;;;;;;;;;2.30;99.90;;;;;;5023741;28;19926;-79
2022/01/05 05:58:18;;;;;;;;;;;3.00;99.90;;;;;;5029566;28;19936;-78
2022/01/05 06:01:23;;;;;;;;;;;2.40;99.90;;;;;;5031727;28;20532;-78
2022/01/05 06:04:29;;;;;;;;;;;2.20;99.90;;;;;;5023691;28;19932;-78
2022/01/05 06:07:14;;;;;;;;;;;2.20;99.90;;;;;;5053598;28;19925;-80
2022/01/05 06:09:42;;;;;;;;;;;2.20;99.90;;;;;;5023054;28;19929;-79
2022/01/05 06:12:36;;;;;;;;;;;2.20;99.90;;;;;;5056477;28;19929;-79
2022/01/05 06:15:16;;;;;;;;;;;2.30;99.90;;;;;;5023370;28;19961;-79
2022/01/05 06:17:45;;;;;;;;;;;2.20;99.90;;;;;;5025626;28;19925;-79
2022/01/05 06:20:45;;;;;;;;;;;2.30;99.90;;;;;;5029715;28;19928;-79
2022/01/05 06:23:14;;;;;;;;;;;2.20;99.90;;;;;;5026852;28;19932;-79
2022/01/05 06:25:43;;;;;;;;;;;2.20;99.90;;;;;;5025655;28;19925;-80
2022/01/05 06:28:11;;;;;;;;;;;2.20;99.90;;;;;;5024701;28;19936;-78
2022/01/05 06:31:04;;;;;;;;;;;2.20;99.90;;;;;;5026341;28;19980;-79
2022/01/05 06:33:32;;;;;;;;;;;2.20;99.90;;;;;;5003816;28;19930;-79
2022/01/05 06:36:38;;;;;;;;;;;2.20;99.90;;;;;;5006792;28;20743;-79
2022/01/05 06:39:06;;;;;;;;;;;2.20;99.90;;;;;;5025261;28;19922;-79
2022/01/05 06:41:37;;;;;;;;;;;2.20;99.90;;;;;;5023166;28;19933;-79
2022/01/05 06:44:39;;;;;;;;;;;2.20;99.90;;;;;;5024940;28;20226;-79
2022/01/05 06:47:10;;;;;;;;;;;2.20;99.90;;;;;;5004742;28;19932;-80
2022/01/05 06:49:38;;;;;;;;;;;2.20;99.90;;;;;;5015352;28;19944;-79
2022/01/05 06:52:06;;;;;;;;;;;2.20;99.90;;;;;;5040353;28;19930;-78
2022/01/05 06:54:33;;;;;;;;;;;2.20;99.90;;;;;;5024807;28;19930;-79
2022/01/05 06:57:03;;;;;;;;;;;2.20;99.90;;;;;;5002493;28;20093;-79
2022/01/05 06:59:57;;;;;;;;;;;2.20;99.90;;;;;;5025717;28;19941;-79
2022/01/05 07:02:29;;;;;;;;;;;2.20;99.90;;;;;;5034087;28;19930;-78
2022/01/05 07:04:57;;;;;;;;;;;2.20;99.90;;;;;;5004930;28;19929;-79
2022/01/05 07:07:27;;;;;;;;;;;2.20;99.90;;;;;;5003534;28;20315;-79
2022/01/05 07:09:55;;;;;;;;;;;2.10;99.90;;;;;;5012961;28;19930;-79
2022/01/05 07:12:23;;;;;;;;;;;2.10;99.90;;;;;;5040324;28;19925;-79
2022/01/05 07:15:18;;;;;;;;;;;2.10;99.90;;;;;;5063220;28;19929;-79
2022/01/05 07:17:49;;;;;;;;;;;2.10;99.90;;;;;;5034084;28;19935;-79
2022/01/05 07:24:00;;;;;;;;;;;2.10;99.90;;;;;;5074441;28;19921;-79
2022/01/05 07:26:28;;;;;;;;;;;2.20;99.90;;;;;;5069830;28;20043;-79
2022/01/05 07:28:56;;;;;;;;;;;2.20;99.90;;;;;;5046665;28;20337;-79
2022/01/05 07:35:06;;;;;;;;;;;2.20;99.90;;;;;;5059141;28;19940;-79
2022/01/05 07:40:53;;;;;;;;;;;2.20;99.90;;;;;;5064264;28;20451;-80
2022/01/05 07:43:22;;;;;;;;;;;2.30;99.90;;;;;;5065473;28;19925;-79
2022/01/05 07:45:50;;;;;;;;;;;2.10;99.90;;;;;;5043004;23;19926;-85
2022/01/05 07:48:17;;;;;;;;;;;2.30;99.90;;;;;;5027458;28;20328;-86
2022/01/05 07:50:45;;;;;;;;;;;2.30;99.90;;;;;;5008027;28;19925;-86
2022/01/05 07:53:14;;;;;;;;;;;2.70;99.90;;;;;;4997512;28;19925;-86
2022/01/05 07:55:44;;;;;;;;;;;2.70;99.90;;;;;;5006305;28;19926;-86
2022/01/05 07:58:12;;;;;;;;;;;2.30;99.90;;;;;;5008323;28;19940;-87
2022/01/05 08:00:39;;;;;;;;;;;2.30;99.90;;;;;;5002311;28;20377;-86
2022/01/05 08:03:07;;;;;;;;;;;2.30;99.90;;;;;;5003270;28;20392;-85
2022/01/05 08:05:38;;;;;;;;;;;2.30;99.90;;;;;;5054903;23;19925;-80
2022/01/05 08:08:06;;;;;;;;;;;2.30;99.90;;;;;;5021987;28;19937;-80
2022/01/05 08:10:38;;;;;;;;;;;2.30;99.90;;;;;;5023921;28;19929;-79
2022/01/05 08:13:05;;;;;;;;;;;2.30;99.90;;;;;;5044273;28;19929;-79
2022/01/05 08:15:34;;;;;;;;;;;2.30;99.90;;;;;;5057838;28;19947;-79
2022/01/05 08:18:03;;;;;;;;;;;2.30;99.90;;;;;;5036843;28;19935;-80
2022/01/05 08:20:31;;;;;;;;;;;0.40;99.90;;;;;;5045391;28;19935;-81
2022/01/05 08:23:00;;;;;;;;;;;2.30;99.90;;;;;;5038904;28;19929;-80
2022/01/05 08:25:28;;;;;;;;;;;2.50;99.90;;;;;;5044216;28;19925;-80
2022/01/05 08:28:21;;;;;;;;;;;2.30;99.90;;;;;;5030388;28;19925;-80
2022/01/05 08:30:51;;;;;;;;;;;2.30;99.90;;;;;;5046956;28;19939;-80
2022/01/05 08:33:19;;;;;;;;;;;2.30;99.90;;;;;;5046425;28;19931;-80
2022/01/05 08:36:52;;;;;;;;;;;2.30;99.90;;;;;;5040956;28;19935;-80
2022/01/05 08:39:23;;;;;;;;;;;2.30;99.90;;;;;;5039860;28;19925;-84
2022/01/05 08:41:52;;;;;;;;;;;2.30;99.90;;;;;;5047027;28;19929;-80
2022/01/05 08:44:21;;;;;;;;;;;2.30;99.90;;;;;;5047647;28;19939;-80
2022/01/05 08:47:25;;;;;;;;;;;2.30;99.90;;;;;;5025242;28;19930;-80
2022/01/05 08:50:30;;;;;;;;;;;2.50;99.90;;;;;;5041707;28;19955;-79
2022/01/05 08:53:03;;;;;;;;;;;2.30;99.90;;;;;;5033615;28;19929;-79
2022/01/05 08:55:43;;;;;;;;;;;2.40;99.90;;;;;;5041732;28;19929;-79
2022/01/05 08:58:16;;;;;;;;;;;3.00;99.90;;;;;;5041781;28;19933;-79
2022/01/05 09:01:12;;;;;;;;;;;2.40;99.90;;;;;;5042278;28;19925;-79
2022/01/05 09:03:42;;;;;;;;;;;2.50;99.90;;;;;;5042649;28;19937;-79
2022/01/05 09:06:37;;;;;;;;;;;2.50;99.90;;;;;;5034529;28;20007;-79
2022/01/05 09:09:06;;;;;;;;;;;2.50;99.90;;;;;;5041583;28;19931;-80
2022/01/05 09:11:35;;;;;;;;;;;2.50;99.90;;;;;;5025870;28;20390;-78
2022/01/05 09:17:25;;;;;;;;;;;2.60;99.90;;;;;;5041325;28;19930;-82
2022/01/05 09:23:39;;;;;;;;;;;2.60;99.90;;;;;;5043686;28;19944;-82
2022/01/05 09:26:09;;;;;;;;;;;2.70;99.90;;;;;;5020637;28;19929;-80
2022/01/05 09:28:43;;;;;;;;;;;2.60;99.90;;;;;;5038594;28;19933;-79
2022/01/05 09:34:30;;;;;;;;;;;2.70;99.90;;;;;;5041573;28;19931;-79
2022/01/05 09:46:34;;;;;;;;;;;3.10;99.90;;;;;;5056700;28;19932;-79
2022/01/05 09:49:09;;;;;;;;;;;3.00;99.90;;;;;;5039430;28;19939;-80
2022/01/05 09:51:42;;;;;;;;;;;3.00;99.90;;;;;;5023854;28;19932;-80
2022/01/05 09:54:12;;;;;;;;;;;3.10;99.90;;;;;;5058485;28;20354;-81
2022/01/05 10:01:05;;;;;;;;;;;3.20;99.90;;;;;;5025363;28;19914;-78
2022/01/05 10:03:35;;;;;;;;;;;3.30;99.90;;;;;;5042980;28;19933;-79
2022/01/05 10:06:11;;;;;;;;;;;3.30;99.90;;;;;;5025131;28;19925;-79
2022/01/05 10:08:45;;;;;;;;;;;3.30;99.90;;;;;;5043396;28;19939;-78
2022/01/05 10:11:36;;;;;;;;;;;3.50;99.90;;;;;;5042921;28;19929;-80
2022/01/05 10:14:45;;;;;;;;;;;3.80;99.90;;;;;;5030034;28;19933;-82
2022/01/05 10:17:23;;;;;;;;;;;3.50;99.90;;;;;;5044666;28;19933;-80
2022/01/05 10:19:58;;;;;;;;;;;3.60;99.90;;;;;;5046182;28;19925;-79
2022/01/05 10:23:00;;;;;;;;;;;3.90;99.90;;;;;;5054435;28;19933;-79
2022/01/05 10:25:33;;;;;;;;;;;3.70;99.90;;;;;;5045157;28;19924;-79
2022/01/05 10:28:33;;;;;;;;;;;3.70;99.90;;;;;;5046986;28;19933;-78
2022/01/05 10:31:29;;;;;;;;;;;3.80;99.90;;;;;;5045555;28;19939;-81
2022/01/05 10:34:28;;;;;;;;;;;3.80;99.90;;;;;;5046830;28;20274;-78
2022/01/05 10:37:06;;;;;;;;;;;3.90;99.90;;;;;;5053874;28;19925;-81
2022/01/05 10:40:03;;;;;;;;;;;3.90;99.90;;;;;;5032298;28;19938;-85
2022/01/05 11:07:14;;;;;;;;;;;;;;;;;;;;;
2022/01/05 11:26:38;;;;;;;;;;;4.60;99.90;;;;;;5142679;27;19922;-90
2022/01/05 11:29:09;;;;;;;;;;;4.90;99.90;;;;;;5117451;27;19942;-90
2022/01/05 11:31:38;;;;;;;;;;;4.50;99.90;;;;;;5107854;28;19928;-85
2022/01/05 11:34:06;;;;;;;;;;;4.90;99.90;;;;;;5147588;27;19939;-84
2022/01/05 11:36:33;;;;;;;;;;;4.90;99.90;;;;;;5123175;27;19938;-86
2022/01/05 11:39:01;;;;;;;;;;;5.00;99.90;;;;;;5134529;27;19924;-91
2022/01/05 11:41:47;;;;;;;;;;;4.40;99.90;;;;;;5113933;28;19924;-91
2022/01/05 11:44:42;;;;;;;;;;;5.10;99.90;;;;;;5117891;27;19924;-91
2022/01/05 11:47:34;;;;;;;;;;;5.10;99.90;;;;;;5107902;28;19927;-90
2022/01/05 11:50:21;;;;;;;;;;;5.20;99.90;;;;;;5100898;27;19924;-88
2022/01/05 11:52:59;;;;;;;;;;;5.70;99.90;;;;;;5093297;27;19947;-91
2022/01/05 11:55:31;;;;;;;;;;;5.40;99.90;;;;;;5107061;27;19931;-91
2022/01/05 11:58:19;;;;;;;;;;;5.50;99.90;;;;;;5106433;27;19932;-90
2022/01/05 12:01:07;;;;;;;;;;;5.50;99.90;;;;;;5090123;27;19923;-89
2022/01/05 12:03:43;;;;;;;;;;;5.60;99.90;;;;;;5097241;27;19932;-89
2022/01/05 12:06:12;;;;;;;;;;;6.50;99.90;;;;;;5091144;27;19924;-89
2022/01/05 12:08:44;;;;;;;;;;;5.70;99.90;;;;;;5102791;27;19928;-89
2022/01/05 12:11:30;;;;;;;;;;;5.70;99.90;;;;;;5086803;27;19927;-90
2022/01/05 12:14:03;;;;;;;;;;;5.70;99.90;;;;;;5122574;27;19938;-89
2022/01/05 12:16:49;;;;;;;;;;;5.90;99.90;;;;;;5101164;28;19923;-91
2022/01/05 12:19:18;;;;;;;;;;;6.00;99.90;;;;;;5088420;27;19940;-89
2022/01/05 12:21:47;;;;;;;;;;;6.00;99.90;;;;;;5105710;27;19931;-91
2022/01/05 12:24:16;;;;;;;;;;;5.90;99.90;;;;;;5089172;27;20330;-90
2022/01/05 12:26:44;;;;;;;;;;;6.10;99.90;;;;;;5118786;28;19942;-89
2022/01/05 12:29:38;;;;;;;;;;;6.10;99.90;;;;;;5103104;27;19924;-90
2022/01/05 12:32:07;;;;;;;;;;;6.50;99.90;;;;;;5101225;28;19923;-89
2022/01/05 12:34:53;;;;;;;;;;;6.30;99.90;;;;;;5091789;28;19928;-90
2022/01/05 12:37:41;;;;;;;;;;;6.40;99.90;;;;;;5086289;28;19927;-89
2022/01/05 12:40:22;;;;;;;;;;;6.30;99.90;;;;;;5070666;28;19924;-90
2022/01/05 12:43:09;;;;;;;;;;;6.50;99.90;;;;;;5088867;28;20414;-89
2022/01/05 12:45:43;;;;;;;;;;;6.40;99.90;;;;;;5088051;28;19934;-90
2022/01/05 12:48:39;;;;;;;;;;;6.40;99.90;;;;;;5088429;28;19935;-89
2022/01/05 12:51:11;;;;;;;;;;;6.40;99.90;;;;;;5094781;27;19935;-89
2022/01/05 12:53:51;;;;;;;;;;;6.40;99.90;;;;;;5074053;28;19938;-88
2022/01/05 12:56:20;;;;;;;;;;;6.40;99.90;;;;;;5077077;28;19924;-90
2022/01/05 12:58:51;;;;;;;;;;;6.30;99.90;;;;;;5092602;28;19924;-90
2022/01/05 13:01:28;;;;;;;;;;;6.50;99.90;;;;;;5080426;28;19933;-90
2022/01/05 13:03:59;;;;;;;;;;;4.90;99.90;;;;;;5097594;28;19943;-91
2022/01/05 13:06:32;;;;;;;;;;;6.50;99.90;;;;;;5094317;28;20572;-90
2022/01/05 13:09:06;;;;;;;;;;;6.50;99.90;;;;;;5080904;28;20261;-91
2022/01/05 13:11:38;;;;;;;;;;;6.60;99.90;;;;;;5100555;27;19931;-90
2022/01/05 13:14:18;;;;;;;;;;;6.60;99.90;;;;;;5080209;28;21546;-90
2022/01/05 13:16:46;;;;;;;;;;;6.80;99.90;;;;;;5082146;28;19928;-91
2022/01/05 13:19:30;;;;;;;;;;;6.70;99.90;;;;;;5093440;28;19924;-87
2022/01/05 13:22:07;;;;;;;;;;;6.60;99.90;;;;;;5103609;28;19932;-89
2022/01/05 13:24:51;;;;;;;;;;;5.90;99.90;;;;;;5075197;28;19924;-87
2022/01/05 13:27:20;;;;;;;;;;;6.60;99.90;;;;;;5089126;28;19932;-89
2022/01/05 13:29:54;;;;;;;;;;;6.60;99.90;;;;;;5090747;28;19928;-89
2022/01/05 13:32:23;;;;;;;;;;;6.60;99.90;;;;;;5072043;28;20425;-90
2022/01/05 13:35:00;;;;;;;;;;;6.70;99.90;;;;;;5092878;27;20045;-90
2022/01/05 13:37:30;;;;;;;;;;;6.70;99.90;;;;;;5087781;28;19931;-90
2022/01/05 13:40:10;;;;;;;;;;;6.70;99.90;;;;;;5100704;27;19983;-90
2022/01/05 13:42:42;;;;;;;;;;;6.70;99.90;;;;;;5071422;27;20615;-90
2022/01/05 13:45:11;;;;;;;;;;;6.80;99.90;;;;;;5084244;28;20554;-90
2022/01/05 13:47:45;;;;;;;;;;;7.00;99.90;;;;;;5103258;28;19928;-89
2022/01/05 13:50:22;;;;;;;;;;;7.00;99.90;;;;;;5076054;27;20387;-89
2022/01/05 13:52:55;;;;;;;;;;;6.90;99.90;;;;;;5073239;28;19943;-90
2022/01/05 13:55:24;;;;;;;;;;;8.00;99.90;;;;;;5085067;27;19927;-90
2022/01/05 13:58:01;;;;;;;;;;;6.90;99.90;;;;;;5071446;27;19963;-90
2022/01/05 14:00:31;;;;;;;;;;;5.50;99.90;;;;;;5073878;27;19946;-90
2022/01/05 14:03:00;;;;;;;;;;;7.00;99.90;;;;;;5072116;28;19928;-90
2022/01/05 14:05:31;;;;;;;;;;;7.20;99.90;;;;;;5051201;28;20538;-91
2022/01/05 14:08:23;;;;;;;;;;;7.00;99.90;;;;;;5082467;28;19928;-91
2022/01/05 14:11:20;;;;;;;;;;;8.00;99.90;;;;;;5117853;28;20041;-91
2022/01/05 14:15:34;;;;;;;;;;;6.90;99.90;;;;;;5133331;27;19930;-92
2022/01/05 14:19:03;;;;;;;;;;;6.80;99.90;;;;;;5124984;27;19923;-91
2022/01/05 14:21:46;;;;;;;;;;;7.00;99.90;;;;;;5116039;27;19931;-91
2022/01/05 14:24:17;;;;;;;;;;;6.90;99.90;;;;;;5090789;28;19935;-91
2022/01/05 14:26:48;;;;;;;;;;;7.80;99.90;;;;;;5100601;27;19935;-92
2022/01/05 14:29:28;;;;;;;;;;;7.00;99.90;;;;;;5099345;28;19932;-91
2022/01/05 14:32:05;;;;;;;;;;;6.70;99.90;;;;;;5100754;27;19932;-90
2022/01/05 14:34:41;;;;;;;;;;;5.50;99.90;;;;;;5098485;28;19932;-89
2022/01/05 14:37:19;;;;;;;;;;;6.90;99.90;;;;;;5108500;22;20007;-82
2022/01/05 14:39:56;;;;;;;;;;;6.90;99.90;;;;;;5069033;28;19932;-82
2022/01/05 14:42:33;;;;;;;;;;;7.20;99.90;;;;;;5072304;28;19932;-82
2022/01/05 14:45:24;;;;;;;;;;;6.90;99.90;;;;;;5067308;28;19928;-81
2022/01/05 14:47:55;;;;;;;;;;;7.00;99.90;;;;;;5087255;28;19932;-82
2022/01/05 14:50:25;;;;;;;;;;;6.60;99.90;;;;;;5082841;28;19929;-84
2022/01/05 14:53:12;;;;;;;;;;;6.80;99.90;;;;;;5071276;28;20232;-82
2022/01/05 14:56:30;;;;;;;;;;;6.70;99.90;;;;;;5065235;28;19939;-81
2022/01/05 14:59:12;;;;;;;;;;;7.00;99.90;;;;;;5059008;28;19933;-81
2022/01/05 15:02:11;;;;;;;;;;;6.60;99.90;;;;;;5068636;28;19933;-80
2022/01/05 15:04:41;;;;;;;;;;;6.50;99.90;;;;;;5054824;28;19932;-81
2022/01/05 15:07:19;;;;;;;;;;;6.40;99.90;;;;;;5059754;28;20186;-81
2022/01/05 15:09:57;;;;;;;;;;;6.40;99.90;;;;;;5069227;28;19944;-82
2022/01/05 15:12:25;;;;;;;;;;;6.30;99.90;;;;;;5047699;28;19928;-81
2022/01/05 15:17:58;;;;;;;;;;;6.20;99.90;;;;;;5072118;28;19935;-81
2022/01/05 15:20:38;;;;;;;;;;;6.20;99.90;;;;;;5046242;28;19932;-81
2022/01/05 15:23:11;;;;;;;;;;;6.10;99.90;;;;;;5051771;28;20495;-81
2022/01/05 15:25:48;;;;;;;;;;;6.10;99.90;;;;;;5074959;28;19932;-83
2022/01/05 15:28:42;;;;;;;;;;;6.10;99.90;;;;;;5074423;28;19939;-81
2022/01/05 15:31:10;;;;;;;;;;;6.00;99.90;;;;;;5052956;28;20140;-85
2022/01/05 15:33:49;;;;;;;;;;;5.70;99.90;;;;;;5069883;28;19932;-82
2022/01/05 15:36:43;;;;;;;;;;;5.90;99.90;;;;;;5070891;28;19939;-82
2022/01/05 15:39:19;;;;;;;;;;;5.90;99.90;;;;;;5056725;28;20003;-82
2022/01/05 15:41:49;;;;;;;;;;;6.00;99.90;;;;;;5040264;28;19929;-82
2022/01/05 15:44:20;;;;;;;;;;;5.90;99.90;;;;;;5089732;28;19940;-81
2022/01/05 15:46:49;;;;;;;;;;;5.90;99.90;;;;;;5089257;28;19936;-81
2022/01/05 15:49:17;;;;;;;;;;;5.80;99.90;;;;;;5055255;28;19928;-80
2022/01/05 15:51:46;;;;;;;;;;;6.00;99.90;;;;;;5060082;28;19924;-84
2022/01/05 15:54:18;;;;;;;;;;;5.80;99.90;;;;;;5075616;28;20531;-81
2022/01/05 16:02:59;;;;;;;;;;;6.00;99.90;;;;;;5070958;28;20294;-82
2022/01/05 16:05:26;;;;;;;;;;;5.70;99.90;;;;;;5070437;28;19924;-82
2022/01/05 16:07:54;;;;;;;;;;;5.70;99.90;;;;;;5088423;28;19932;-83
2022/01/05 16:10:22;;;;;;;;;;;5.80;99.90;;;;;;5054956;28;19932;-81
2022/01/05 16:12:58;;;;;;;;;;;5.60;99.90;;;;;;5063066;28;19943;-82
2022/01/05 16:16:11;;;;;;;;;;;5.50;99.90;;;;;;5070970;28;19925;-81
2022/01/05 16:18:57;;;;;;;;;;;;;;;;;;;;;
2022/01/05 16:24:43;;;;;;;;;;;5.90;99.90;;;;;;5075777;28;19928;-81
2022/01/05 16:27:16;;;;;;;;;;;5.60;99.90;;;;;;5047297;28;19935;-82
2022/01/05 16:33:50;;;;;;;;;;;5.90;99.90;;;;;;5046189;28;19935;-83
2022/01/05 16:37:28;;;;;;;;;;;;;;;;;;;;;
2022/01/05 16:47:59;;;;;;;;;;;;;;;;;;;;;
2022/01/05 16:55:08;;;;;;;;;;;5.10;99.90;;;;;;4884268;28;19939;-83
2022/01/05 17:01:09;;;;;;;;;;;;;;;;;;;;;
2022/01/05 17:04:45;;;;;;;;;;;5.20;99.90;;;;;;4953058;28;20007;-84
2022/01/05 17:08:12;;;;;;;;;;;5.00;99.90;;;;;;5038335;28;20337;-82
2022/01/05 17:10:42;;;;;;;;;;;5.30;99.90;;;;;;5064460;28;19932;-82
2022/01/05 17:26:48;;;;;;;;;;;5.10;99.90;;;;;;4897165;29;19938;-86
2022/01/05 17:50:57;;;;;;;;;;;3.40;99.90;;;;;;4551708;27;15889707;-89
2022/01/05 18:03:08;;;;;;;;;;;4.40;99.90;;;;;;1333960;26;19937;-82
2022/01/05 18:05:39;;;;;;;;;;;4.50;99.90;;;;;;4943049;28;19932;-80
2022/01/05 18:08:08;;;;;;;;;;;4.30;99.90;;;;;;4993269;28;19941;-78
2022/01/05 18:10:38;;;;;;;;;;;4.30;99.90;;;;;;4983735;28;20514;-79
2022/01/05 18:13:06;;;;;;;;;;;4.40;99.90;;;;;;5000949;28;20339;-78
2022/01/05 18:15:34;;;;;;;;;;;4.20;99.90;;;;;;5002678;28;19926;-79
2022/01/05 18:18:28;;;;;;;;;;;4.30;99.90;;;;;;4998282;28;19934;-81
2022/01/05 18:21:02;;;;;;;;;;;4.20;99.90;;;;;;4995414;28;19937;-80
2022/01/05 18:23:38;;;;;;;;;;;4.20;99.90;;;;;;4999461;28;19937;-79
2022/01/05 18:26:08;;;;;;;;;;;4.10;99.90;;;;;;4995522;28;19926;-80
2022/01/05 18:28:37;;;;;;;;;;;4.10;99.90;;;;;;4982176;28;19927;-77